createdAt,value
2023-04-14T00:00:01.035Z,9.6
2023-04-14T00:05:01.166Z,8.0
2023-04-14T00:15:01.093Z,6.2
2023-04-14T00:20:01.092Z,9.7
2023-04-14T00:25:06.195Z,9.9
2023-04-14T00:30:01.047Z,9.9
2023-04-14T00:35:01.179Z,10.1
2023-04-14T00:40:01.017Z,7.6
2023-04-14T00:45:01.164Z,3.8
2023-04-14T00:50:01.055Z,3.6
2023-04-14T01:00:01.230Z,3.4
2023-04-14T06:15:01.149Z,6.2
2023-04-14T06:25:01.017Z,15.4
2023-04-14T06:30:00.965Z,21.0
2023-04-14T06:35:01.109Z,33.0
2023-04-14T06:40:00.973Z,41.2
2023-04-14T06:45:01.120Z,66.6
2023-04-14T06:50:01.982Z,104.3
2023-04-14T06:55:01.232Z,123.9
2023-04-14T07:00:00.998Z,160.7
2023-04-14T07:05:01.292Z,201.5
2023-04-14T07:10:01.216Z,225.8
2023-04-14T07:15:01.260Z,210.3
2023-04-14T07:20:01.014Z,211.6
2023-04-14T07:25:01.159Z,194.4
2023-04-14T07:30:01.023Z,166.2
2023-04-14T07:35:01.185Z,135.2
2023-04-14T07:40:01.059Z,120.2
2023-04-14T07:45:01.094Z,110.2
2023-04-14T07:50:01.177Z,94.8
2023-04-14T07:55:01.122Z,83.8
2023-04-14T08:00:01.081Z,81.8
2023-04-14T08:05:01.213Z,84.0
2023-04-14T08:10:01.055Z,86.0
2023-04-14T08:15:02.340Z,87.4
2023-04-14T08:20:01.029Z,88.4
2023-04-14T08:25:01.156Z,86.0
2023-04-14T08:40:01.251Z,72.1
2023-04-14T08:45:01.086Z,70.2
2023-04-14T08:50:01.118Z,68.8
2023-04-14T08:55:01.092Z,66.8
2023-04-14T09:00:02.149Z,64.8
2023-04-14T09:05:01.266Z,63.6
2023-04-14T09:10:01.036Z,61.5
2023-04-14T09:15:01.043Z,60.5
2023-04-14T09:25:01.074Z,61.5
2023-04-14T09:30:01.059Z,66.0
2023-04-14T09:35:01.180Z,66.9
2023-04-14T09:40:01.046Z,67.5
2023-04-14T09:50:01.108Z,69.3
2023-04-14T09:55:01.322Z,69.6
2023-04-14T10:00:01.127Z,70.0
2023-04-14T10:15:02.030Z,73.6
2023-04-14T10:20:02.112Z,73.3
2023-04-14T10:25:01.851Z,70.2
2023-04-14T10:35:03.210Z,70.4
2023-04-14T10:40:01.732Z,68.8
2023-04-14T10:50:02.722Z,71.2
2023-04-14T10:55:01.772Z,71.4
2023-04-14T11:00:01.685Z,71.4
2023-04-14T11:15:01.574Z,69.0
2023-04-14T11:25:01.595Z,66.6
2023-04-14T11:30:01.357Z,83.2
2023-04-14T11:40:01.601Z,78.1
2023-04-14T11:45:01.500Z,74.5
2023-04-14T11:50:01.507Z,73.4
2023-04-14T11:55:01.564Z,72.7
2023-04-14T12:00:01.500Z,62.1
2023-04-14T12:05:02.286Z,61.7
2023-04-14T12:10:01.501Z,65.3
2023-04-14T12:15:01.456Z,64.9
2023-04-14T12:20:01.469Z,65.8
2023-04-14T12:25:01.767Z,66.1
2023-04-14T12:30:01.461Z,67.0
2023-04-14T12:35:01.855Z,64.1
2023-04-14T12:45:01.563Z,64.4
2023-04-14T12:50:01.431Z,72.8
2023-04-14T13:05:01.447Z,64.6
2023-04-14T13:10:01.308Z,64.0
2023-04-14T13:15:01.448Z,65.4
2023-04-14T13:20:01.325Z,65.0
2023-04-14T13:25:01.539Z,64.3
2023-04-14T13:30:01.323Z,63.2
2023-04-14T13:35:01.464Z,63.3
2023-04-14T13:50:01.697Z,62.0
2023-04-14T13:55:01.458Z,62.7
2023-04-14T14:00:01.398Z,61.9
2023-04-14T14:05:01.481Z,62.1
2023-04-14T14:10:06.393Z,62.2
2023-04-14T14:20:01.518Z,62.7
2023-04-14T14:35:02.660Z,63.3
2023-04-14T14:40:02.026Z,62.8
2023-04-14T14:45:01.605Z,62.4
2023-04-14T14:50:06.990Z,64.1
2023-04-14T14:55:02.379Z,63.4
2023-04-14T15:00:01.396Z,64.0
2023-04-14T15:05:01.581Z,64.7
2023-04-14T15:20:01.317Z,79.8
2023-04-14T15:25:01.631Z,80.4
2023-04-14T15:30:02.380Z,83.6
2023-04-14T15:35:01.909Z,85.5
2023-04-14T15:40:01.436Z,70.1
2023-04-14T15:45:01.612Z,71.0
2023-04-14T15:50:12.888Z,73.8
2023-04-14T15:55:01.503Z,72.7
2023-04-14T16:05:01.669Z,75.3
2023-04-14T16:10:01.457Z,73.5
2023-04-14T16:15:01.617Z,71.3
2023-04-14T16:20:01.432Z,69.6
2023-04-14T16:25:01.554Z,67.7
2023-04-14T16:30:06.412Z,63.9
2023-04-14T16:35:06.531Z,64.6
2023-04-14T16:40:01.728Z,63.9
2023-04-14T16:45:01.464Z,64.1
2023-04-14T16:50:01.583Z,63.3
2023-04-14T16:55:01.556Z,63.8
2023-04-14T17:05:01.892Z,65.4
2023-04-14T17:10:02.435Z,66.1
2023-04-14T17:15:01.528Z,66.1
2023-04-14T17:20:01.335Z,67.9
2023-04-14T17:25:01.435Z,69.6
2023-04-14T17:30:01.415Z,71.0
2023-04-14T17:35:01.544Z,71.3
2023-04-14T17:40:01.954Z,72.2
2023-04-14T17:50:01.501Z,71.7
2023-04-14T17:55:01.443Z,74.2
2023-04-14T18:00:01.346Z,72.7
2023-04-14T18:05:01.763Z,74.9
2023-04-14T18:10:01.415Z,75.6
2023-04-14T18:20:01.374Z,75.6
2023-04-14T18:25:01.483Z,74.2
2023-04-14T18:35:01.457Z,71.3
2023-04-14T18:40:01.414Z,69.0
2023-04-14T18:45:01.568Z,64.4
2023-04-14T18:50:01.388Z,63.9
2023-04-14T18:55:01.512Z,63.9
2023-04-14T19:05:01.592Z,62.9
2023-04-14T19:10:01.406Z,62.8
2023-04-14T19:15:01.521Z,62.6
2023-04-14T19:20:01.376Z,63.0
2023-04-14T19:25:06.509Z,63.1
2023-04-14T19:30:01.372Z,64.2
2023-04-14T19:40:01.697Z,65.6
2023-04-14T19:45:01.506Z,66.5
2023-04-14T19:50:01.338Z,67.6
2023-04-14T19:55:01.469Z,67.7
2023-04-14T20:00:01.491Z,68.2
2023-04-14T20:05:01.480Z,67.2
2023-04-14T20:10:01.452Z,68.1
2023-04-14T20:15:01.437Z,68.2
2023-04-14T20:20:01.425Z,69.7
2023-04-14T20:25:01.541Z,69.7
2023-04-14T20:30:01.426Z,71.5
2023-04-14T20:35:01.469Z,73.0
2023-04-14T20:40:01.661Z,74.6
2023-04-14T20:50:01.524Z,73.4
2023-04-14T20:55:01.425Z,95.6
2023-04-14T21:00:01.391Z,94.0
2023-04-14T21:05:01.420Z,91.4
2023-04-14T21:10:01.349Z,89.4
2023-04-14T21:20:01.335Z,68.2
2023-04-14T21:25:01.464Z,68.6
2023-04-14T21:35:01.458Z,71.2
2023-04-14T21:45:01.493Z,78.0
2023-04-14T21:50:01.329Z,90.1
2023-04-14T21:55:01.489Z,105.0
2023-04-14T22:00:01.334Z,127.1
2023-04-14T22:05:06.059Z,155.3
2023-04-14T22:10:01.332Z,154.2
2023-04-14T22:15:06.339Z,145.7
2023-04-14T22:20:01.333Z,141.0
2023-04-14T22:30:06.457Z,125.6
2023-04-14T22:35:01.492Z,105.6
2023-04-14T22:40:06.347Z,110.0
2023-04-14T22:45:06.433Z,114.7
2023-04-14T22:50:01.384Z,145.7
2023-04-14T22:55:01.517Z,153.8
2023-04-14T23:00:01.556Z,179.9
2023-04-14T23:05:01.502Z,198.9
2023-04-14T23:10:01.696Z,227.8
2023-04-14T23:15:01.431Z,216.2
2023-04-14T23:25:01.438Z,225.9
2023-04-14T23:30:01.414Z,216.2
2023-04-14T23:35:01.972Z,213.2
2023-04-14T23:40:01.364Z,184.8
2023-04-14T23:45:01.783Z,168.9
2023-04-14T23:50:01.389Z,154.4
2023-04-14T23:55:02.397Z,143.4
